Time;durP1;ratioP1;P1;durP2;ratioP2;P2;SDS_P1;SDS_P2;PMS_P1;PMS_P2;Temp;Humidity;BMP_temperature;BMP_pressure;BME280_temperature;BME280_humidity;BME280_pressure;Samples;Min_cycle;Max_cycle;Signal;HPM_P1;HPM_P2
2023/05/26 00:00:23;;;;;;;22.88;8.02;;;20.10;83.90;;;;;;4985604;28;20034;-54
2023/05/26 00:02:49;;;;;;;24.80;8.43;;;20.10;83.90;;;;;;5001285;28;20050;-54
2023/05/26 00:05:20;;;;;;;22.45;7.25;;;20.10;84.00;;;;;;4986331;28;20373;-54
2023/05/26 00:07:45;;;;;;;25.77;8.13;;;20.10;84.00;;;;;;5001489;28;20375;-54
2023/05/26 00:10:11;;;;;;;17.88;7.50;;;20.00;84.00;;;;;;4987010;28;20031;-54
2023/05/26 00:12:37;;;;;;;18.38;7.70;;;20.00;84.00;;;;;;4984581;28;20038;-54
2023/05/26 00:15:03;;;;;;;19.70;8.15;;;20.00;84.00;;;;;;4986221;28;20062;-54
2023/05/26 00:17:28;;;;;;;18.33;7.45;;;20.00;84.10;;;;;;4985068;28;20468;-54
2023/05/26 00:19:54;;;;;;;19.17;7.20;;;20.00;84.20;;;;;;4986205;28;20035;-54
2023/05/26 00:22:20;;;;;;;23.05;7.07;;;19.90;84.20;;;;;;4984739;28;20069;-54
2023/05/26 00:24:46;;;;;;;15.63;7.50;;;19.90;84.30;;;;;;4985898;28;20043;-54
2023/05/26 00:27:12;;;;;;;26.10;7.25;;;19.90;84.40;;;;;;4984734;28;20094;-54
2023/05/26 00:29:37;;;;;;;19.50;6.88;;;19.90;85.10;;;;;;4984089;28;20042;-54
2023/05/26 00:32:06;;;;;;;16.20;7.35;;;19.90;84.50;;;;;;4985928;28;20472;-54
2023/05/26 00:34:35;;;;;;;18.48;7.30;;;19.80;84.50;;;;;;4985892;28;20058;-55
2023/05/26 00:37:01;;;;;;;16.40;7.25;;;19.80;84.50;;;;;;4984168;28;20027;-54
2023/05/26 00:39:27;;;;;;;16.23;7.05;;;19.80;84.60;;;;;;4985119;28;20059;-54
2023/05/26 00:41:53;;;;;;;13.05;6.78;;;19.80;84.70;;;;;;4985654;28;20050;-54
2023/05/26 00:44:18;;;;;;;18.42;7.28;;;19.80;84.80;;;;;;4984686;28;20031;-54
2023/05/26 00:46:44;;;;;;;16.73;7.70;;;19.70;84.80;;;;;;4984369;28;20086;-54
2023/05/26 00:49:09;;;;;;;14.93;7.07;;;19.70;84.90;;;;;;4985674;28;20038;-54
2023/05/26 00:51:35;;;;;;;13.68;6.85;;;19.70;85.00;;;;;;4984041;28;20051;-54
2023/05/26 00:54:01;;;;;;;16.35;6.78;;;19.70;85.00;;;;;;4984353;28;20035;-54
2023/05/26 00:56:31;;;;;;;20.15;6.85;;;19.70;85.00;;;;;;4984420;28;20027;-54
2023/05/26 00:58:56;;;;;;;11.52;6.90;;;19.60;85.00;;;;;;4984317;28;20101;-54
2023/05/26 01:01:22;;;;;;;13.45;6.32;;;19.60;85.10;;;;;;4983920;28;20075;-54
2023/05/26 01:03:47;;;;;;;15.52;7.28;;;19.60;85.20;;;;;;4983374;28;20471;-54
2023/05/26 01:06:13;;;;;;;18.25;7.43;;;19.60;85.30;;;;;;4984030;28;20086;-54
2023/05/26 01:08:39;;;;;;;13.48;7.00;;;19.50;85.30;;;;;;4983670;28;20062;-54
2023/05/26 01:11:23;;;;;;;13.30;7.20;;;19.50;85.30;;;;;;4984066;28;20065;-54
2023/05/26 01:13:52;;;;;;;12.45;6.07;;;19.50;85.40;;;;;;4983593;28;20058;-54
2023/05/26 01:16:21;;;;;;;10.93;5.88;;;19.50;85.40;;;;;;4984398;28;20034;-54
2023/05/26 01:18:52;;;;;;;13.65;6.40;;;19.50;85.40;;;;;;4984517;28;20033;-54
2023/05/26 01:21:18;;;;;;;12.43;6.50;;;19.40;85.50;;;;;;4984846;28;20022;-54
2023/05/26 01:24:05;;;;;;;12.90;6.68;;;19.40;85.50;;;;;;4983833;28;20034;-54
2023/05/26 01:27:03;;;;;;;15.20;7.32;;;19.40;85.70;;;;;;4985862;28;20035;-54
2023/05/26 01:29:29;;;;;;;10.65;5.95;;;19.40;85.80;;;;;;4985683;28;20337;-54
2023/05/26 01:32:04;;;;;;;11.18;6.68;;;19.40;85.80;;;;;;4983847;28;20054;-54
2023/05/26 01:34:29;;;;;;;13.73;6.13;;;19.30;85.80;;;;;;4985149;28;20049;-54
2023/05/26 01:36:55;;;;;;;12.50;6.30;;;19.30;85.80;;;;;;4985826;28;20082;-54
2023/05/26 01:39:20;;;;;;;8.45;5.57;;;19.30;85.90;;;;;;4985617;28;20471;-54
2023/05/26 01:42:02;;;;;;;11.63;5.93;;;19.30;86.00;;;;;;4984400;28;20030;-54
2023/05/26 01:44:43;;;;;;;10.75;6.05;;;19.30;86.10;;;;;;4984448;28;20090;-54
2023/05/26 01:47:09;;;;;;;12.20;6.03;;;19.20;86.10;;;;;;4984731;28;20027;-54
2023/05/26 01:49:34;;;;;;;14.05;7.75;;;19.20;86.20;;;;;;4978770;28;20166;-54
2023/05/26 01:52:02;;;;;;;10.63;7.45;;;19.20;86.30;;;;;;4983198;28;20341;-54
2023/05/26 01:54:31;;;;;;;13.25;7.10;;;19.10;86.30;;;;;;4983554;28;20070;-54
2023/05/26 01:56:56;;;;;;;14.70;6.65;;;19.10;86.40;;;;;;4982679;28;20031;-54
2023/05/26 01:59:23;;;;;;;10.40;7.20;;;19.10;86.40;;;;;;4999690;28;20035;-54
2023/05/26 02:01:49;;;;;;;14.57;6.90;;;19.10;86.50;;;;;;4967241;28;20023;-54
2023/05/26 02:04:15;;;;;;;11.07;5.90;;;19.10;86.60;;;;;;4983717;28;20407;-54
2023/05/26 02:06:40;;;;;;;11.13;5.95;;;19.10;86.60;;;;;;4982800;28;20115;-54
2023/05/26 02:09:06;;;;;;;10.90;5.85;;;19.00;86.60;;;;;;4985469;28;20039;-54
2023/05/26 02:11:32;;;;;;;14.02;6.35;;;19.00;86.70;;;;;;4983563;28;20026;-54
2023/05/26 02:13:58;;;;;;;11.35;6.40;;;19.00;86.80;;;;;;4985292;28;20027;-54
2023/05/26 02:16:24;;;;;;;10.50;6.60;;;19.00;86.90;;;;;;4966927;28;20472;-54
2023/05/26 02:18:50;;;;;;;13.52;6.47;;;19.00;86.90;;;;;;4983673;28;20035;-55
2023/05/26 02:21:15;;;;;;;10.07;6.22;;;18.90;87.00;;;;;;4983580;28;20086;-54
2023/05/26 02:23:43;;;;;;;9.10;5.78;;;18.90;87.10;;;;;;4983393;28;20034;-54
2023/05/26 02:26:08;;;;;;;8.90;6.00;;;18.90;87.20;;;;;;4999641;28;20065;-54
2023/05/26 02:28:34;;;;;;;9.07;6.10;;;18.90;87.20;;;;;;4983570;28;20121;-54
2023/05/26 02:30:59;;;;;;;11.20;5.88;;;18.90;87.30;;;;;;4983033;28;20035;-54
2023/05/26 02:33:25;;;;;;;19.35;7.63;;;18.90;87.40;;;;;;4983452;28;20034;-54
2023/05/26 02:35:51;;;;;;;11.60;7.80;;;18.80;87.40;;;;;;4986168;28;20037;-54
2023/05/26 02:38:16;;;;;;;13.82;7.32;;;18.80;87.50;;;;;;4988162;28;20026;-54
2023/05/26 02:40:42;;;;;;;15.82;6.88;;;18.80;87.60;;;;;;4986969;28;20041;-54
2023/05/26 02:43:08;;;;;;;11.10;7.40;;;18.80;87.60;;;;;;4986167;28;20027;-54
2023/05/26 02:45:33;;;;;;;13.05;7.53;;;18.80;87.70;;;;;;4986904;28;20042;-54
2023/05/26 02:47:59;;;;;;;11.98;8.07;;;18.70;87.70;;;;;;4970189;28;20460;-54
2023/05/26 02:50:24;;;;;;;19.08;8.77;;;18.70;87.60;;;;;;4986805;28;20042;-55
2023/05/26 02:52:50;;;;;;;10.65;7.75;;;18.70;87.70;;;;;;4986062;28;20031;-54
2023/05/26 02:55:15;;;;;;;13.20;8.13;;;18.70;87.80;;;;;;4986923;28;20030;-54
2023/05/26 02:57:41;;;;;;;10.55;7.45;;;18.70;87.80;;;;;;5018991;28;20061;-54
2023/05/26 03:00:07;;;;;;;17.73;8.52;;;18.70;88.50;;;;;;4987948;28;20030;-54
2023/05/26 03:02:33;;;;;;;12.60;8.10;;;18.60;87.80;;;;;;4985058;28;20046;-54
2023/05/26 03:04:59;;;;;;;14.00;7.88;;;18.60;87.90;;;;;;4987011;28;20061;-54
2023/05/26 03:07:24;;;;;;;13.63;9.00;;;18.60;87.90;;;;;;4986416;28;20031;-54
2023/05/26 03:09:50;;;;;;;13.77;7.78;;;18.50;88.00;;;;;;4986226;28;20125;-54
2023/05/26 03:12:15;;;;;;;18.58;7.85;;;18.50;88.00;;;;;;4985775;28;20023;-54
2023/05/26 03:14:42;;;;;;;18.50;8.00;;;18.50;88.20;;;;;;4987798;28;20054;-54
2023/05/26 03:17:08;;;;;;;14.80;8.10;;;18.50;88.10;;;;;;4985621;28;20085;-54
2023/05/26 03:19:33;;;;;;;20.88;8.63;;;18.50;88.20;;;;;;4987502;28;20109;-54
2023/05/26 03:21:59;;;;;;;20.95;7.80;;;18.50;88.20;;;;;;4986099;28;20031;-54
2023/05/26 03:24:25;;;;;;;25.70;8.57;;;18.50;88.20;;;;;;4987838;28;20054;-54
2023/05/26 03:26:51;;;;;;;17.40;8.02;;;18.40;88.10;;;;;;4987339;28;20046;-54
2023/05/26 03:29:17;;;;;;;17.17;7.80;;;18.40;88.20;;;;;;4986676;28;20462;-54
2023/05/26 03:31:42;;;;;;;21.85;8.10;;;18.40;88.30;;;;;;4986018;28;20027;-54
2023/05/26 03:34:08;;;;;;;15.15;8.48;;;18.40;88.40;;;;;;4985926;28;20062;-54
2023/05/26 03:36:36;;;;;;;19.60;8.85;;;18.40;88.40;;;;;;4985884;28;20038;-54
2023/05/26 03:39:03;;;;;;;18.38;8.88;;;18.30;88.40;;;;;;4984918;28;20400;-54
2023/05/26 03:41:29;;;;;;;54.83;13.85;;;18.30;88.40;;;;;;5016420;28;20040;-54
2023/05/26 03:43:55;;;;;;;111.03;16.73;;;18.30;88.60;;;;;;4984556;28;20098;-54
2023/05/26 03:46:20;;;;;;;39.78;12.95;;;18.30;88.60;;;;;;4984722;28;20058;-54
2023/05/26 03:48:46;;;;;;;34.17;11.98;;;18.30;88.60;;;;;;4986149;28;20050;-54
2023/05/26 03:51:11;;;;;;;39.38;11.38;;;18.20;88.60;;;;;;4986975;28;20490;-53
2023/05/26 03:53:37;;;;;;;41.38;11.15;;;18.20;88.50;;;;;;4969267;28;20058;-54
2023/05/26 03:56:03;;;;;;;30.38;10.85;;;18.20;88.60;;;;;;4985266;28;20054;-54
2023/05/26 03:58:28;;;;;;;38.60;10.55;;;18.20;89.30;;;;;;4985846;28;20027;-54
2023/05/26 04:00:55;;;;;;;30.73;10.68;;;18.20;88.70;;;;;;4986346;28;20050;-54
2023/05/26 04:03:21;;;;;;;30.05;9.90;;;18.20;88.70;;;;;;4986033;28;20162;-54
2023/05/26 04:05:47;;;;;;;33.83;10.80;;;18.20;88.70;;;;;;4984342;28;20062;-54
2023/05/26 04:08:13;;;;;;;31.05;9.75;;;18.10;88.70;;;;;;5017501;28;20026;-54
2023/05/26 04:10:38;;;;;;;29.38;9.82;;;18.10;88.70;;;;;;4984781;28;20507;-54
2023/05/26 04:13:04;;;;;;;31.80;9.38;;;18.10;88.70;;;;;;4987389;28;20430;-54
2023/05/26 04:15:29;;;;;;;26.73;9.35;;;18.10;88.70;;;;;;4984972;28;20507;-54
2023/05/26 04:17:55;;;;;;;30.10;9.38;;;18.10;88.70;;;;;;4968994;28;20023;-54
2023/05/26 04:20:21;;;;;;;35.05;9.98;;;18.10;88.70;;;;;;4986636;28;20037;-54
2023/05/26 04:22:47;;;;;;;27.08;8.93;;;18.10;88.70;;;;;;4985025;28;20057;-54
2023/05/26 04:25:13;;;;;;;32.53;9.90;;;18.00;88.70;;;;;;4984862;28;20035;-54
2023/05/26 04:27:39;;;;;;;27.08;8.05;;;18.00;88.70;;;;;;4985146;28;20034;-54
2023/05/26 04:30:05;;;;;;;36.30;8.75;;;18.00;88.70;;;;;;5016793;28;20045;-54
2023/05/26 04:32:33;;;;;;;24.83;9.13;;;18.00;88.70;;;;;;4984962;28;20035;-54
2023/05/26 04:35:00;;;;;;;28.42;9.23;;;18.00;88.70;;;;;;5000657;28;20089;-54
2023/05/26 04:37:26;;;;;;;20.55;8.82;;;18.00;88.70;;;;;;4986113;28;20045;-54
2023/05/26 04:39:52;;;;;;;19.48;8.73;;;18.00;88.80;;;;;;4986048;28;20042;-54
2023/05/26 04:42:19;;;;;;;26.08;8.70;;;18.00;88.80;;;;;;4984654;28;20027;-54
2023/05/26 04:44:45;;;;;;;36.75;9.65;;;17.90;88.80;;;;;;4985947;28;20035;-54
2023/05/26 04:47:11;;;;;;;19.95;9.05;;;17.90;88.90;;;;;;4983592;28;20065;-54
2023/05/26 04:49:37;;;;;;;24.92;7.88;;;17.90;89.00;;;;;;4965343;28;20031;-55
2023/05/26 04:52:02;;;;;;;22.00;8.85;;;17.90;89.00;;;;;;4974906;28;20452;-54
2023/05/26 04:54:28;;;;;;;24.67;7.65;;;17.90;89.00;;;;;;4984697;28;20034;-54
2023/05/26 04:56:53;;;;;;;18.10;8.05;;;17.90;89.10;;;;;;4985464;28;20041;-54
2023/05/26 04:59:21;;;;;;;28.30;8.35;;;17.90;89.20;;;;;;4983382;28;20098;-54
2023/05/26 05:01:47;;;;;;;18.88;8.55;;;17.90;89.20;;;;;;4985713;28;20057;-54
2023/05/26 05:04:13;;;;;;;27.52;8.02;;;17.90;89.40;;;;;;4983599;28;20035;-54
2023/05/26 05:06:38;;;;;;;27.80;8.30;;;17.90;89.40;;;;;;4983907;28;20073;-54
2023/05/26 05:09:04;;;;;;;16.75;8.07;;;17.90;89.50;;;;;;4985801;28;20027;-54
2023/05/26 05:11:29;;;;;;;14.63;7.75;;;17.90;89.60;;;;;;4983733;28;20031;-54
2023/05/26 05:13:55;;;;;;;23.50;8.23;;;17.90;89.50;;;;;;4985723;28;20419;-54
2023/05/26 05:16:20;;;;;;;18.60;7.30;;;17.90;89.70;;;;;;4984585;28;20430;-53
2023/05/26 05:18:46;;;;;;;14.18;8.15;;;17.90;89.60;;;;;;4984759;28;20058;-54
2023/05/26 05:21:12;;;;;;;17.90;7.38;;;17.90;89.50;;;;;;4984397;28;20027;-54
2023/05/26 05:23:37;;;;;;;19.70;7.13;;;17.90;89.40;;;;;;4985584;28;20038;-54
2023/05/26 05:26:03;;;;;;;15.05;7.25;;;17.90;89.30;;;;;;4967711;28;20078;-54
2023/05/26 05:28:29;;;;;;;22.80;7.72;;;17.90;89.20;;;;;;4986544;28;20035;-54
2023/05/26 05:30:55;;;;;;;17.63;7.82;;;17.90;89.10;;;;;;4985949;28;20130;-54
2023/05/26 05:33:20;;;;;;;21.05;7.78;;;17.90;89.00;;;;;;4984387;28;20158;-54
2023/05/26 05:35:46;;;;;;;19.73;7.88;;;17.90;89.00;;;;;;4983837;28;20186;-54
2023/05/26 05:38:12;;;;;;;14.52;7.20;;;17.90;89.00;;;;;;4985400;28;20031;-54
2023/05/26 05:40:38;;;;;;;13.80;6.53;;;17.90;89.00;;;;;;4984621;28;20031;-54
2023/05/26 05:43:03;;;;;;;18.45;6.57;;;17.90;88.90;;;;;;4984010;28;20034;-54
2023/05/26 05:45:29;;;;;;;17.58;7.03;;;17.90;88.70;;;;;;4984554;28;20038;-54
2023/05/26 05:47:55;;;;;;;16.88;7.30;;;17.90;88.60;;;;;;4984411;28;20486;-54
2023/05/26 05:50:20;;;;;;;15.75;6.88;;;17.90;88.60;;;;;;4983958;28;20163;-54
2023/05/26 05:52:46;;;;;;;18.70;7.13;;;17.90;88.60;;;;;;4985105;28;20039;-54
2023/05/26 05:55:11;;;;;;;21.85;7.05;;;17.90;88.40;;;;;;4978065;28;20023;-54
2023/05/26 05:57:37;;;;;;;14.57;6.50;;;17.90;88.30;;;;;;4977347;28;20054;-54
2023/05/26 06:00:04;;;;;;;16.85;7.00;;;17.90;87.90;;;;;;4977679;28;20065;-54
2023/05/26 06:02:30;;;;;;;12.95;6.78;;;17.80;87.80;;;;;;4988396;28;20037;-54
2023/05/26 06:04:55;;;;;;;14.48;7.10;;;17.80;87.70;;;;;;4979284;28;20031;-54
2023/05/26 06:07:21;;;;;;;12.23;6.82;;;17.80;87.70;;;;;;4978040;28;20158;-54
2023/05/26 06:09:46;;;;;;;13.43;6.78;;;17.80;87.60;;;;;;4962360;28;20065;-54
2023/05/26 06:12:12;;;;;;;11.77;6.45;;;17.80;87.60;;;;;;4980645;28;20072;-54
2023/05/26 06:14:38;;;;;;;13.38;7.25;;;17.80;87.70;;;;;;4987074;28;20031;-54
2023/05/26 06:17:04;;;;;;;15.65;6.95;;;17.80;87.70;;;;;;4991569;28;20046;-54
2023/05/26 06:19:30;;;;;;;9.50;6.30;;;17.80;87.70;;;;;;4966551;28;20062;-54
2023/05/26 06:21:56;;;;;;;12.57;6.10;;;17.80;87.70;;;;;;4985287;28;20041;-55
2023/05/26 06:24:21;;;;;;;9.35;6.18;;;17.80;87.60;;;;;;4985350;28;20031;-54
2023/05/26 06:26:47;;;;;;;11.75;6.47;;;17.80;87.50;;;;;;4980818;28;20107;-54
2023/05/26 06:29:12;;;;;;;13.23;6.20;;;17.70;88.10;;;;;;4968629;28;20122;-54
2023/05/26 06:31:38;;;;;;;22.00;7.60;;;17.70;87.40;;;;;;4983173;28;20138;-54
2023/05/26 06:34:03;;;;;;;27.60;7.70;;;17.70;87.50;;;;;;4985726;28;20034;-54
2023/05/26 06:36:29;;;;;;;12.63;6.50;;;17.70;87.60;;;;;;4983928;28;20051;-54
2023/05/26 06:38:54;;;;;;;15.57;6.90;;;17.70;87.40;;;;;;4998113;28;20034;-54
2023/05/26 06:41:20;;;;;;;11.55;6.40;;;17.80;87.40;;;;;;4987579;28;20069;-54
2023/05/26 06:43:46;;;;;;;12.43;6.57;;;17.70;87.40;;;;;;5022567;28;20027;-54
2023/05/26 06:46:11;;;;;;;13.48;6.50;;;17.70;87.30;;;;;;4980576;28;20034;-54
2023/05/26 06:48:37;;;;;;;10.75;6.45;;;17.70;87.30;;;;;;4981930;28;20031;-54
2023/05/26 06:51:02;;;;;;;13.02;6.32;;;17.80;87.30;;;;;;4981555;28;20019;-54
2023/05/26 06:53:28;;;;;;;17.77;7.15;;;17.80;87.20;;;;;;4984708;28;20059;-54
2023/05/26 06:55:53;;;;;;;14.20;6.78;;;17.80;87.20;;;;;;4978946;28;20031;-54
2023/05/26 06:58:19;;;;;;;22.52;7.25;;;17.80;87.20;;;;;;4979993;28;20038;-54
2023/05/26 07:00:58;;;;;;;17.88;7.38;;;17.80;87.10;;;;;;4995083;28;20026;-54
2023/05/26 07:03:24;;;;;;;14.30;6.72;;;17.80;86.90;;;;;;4989009;28;20030;-54
2023/05/26 07:05:50;;;;;;;15.77;6.45;;;17.80;86.90;;;;;;4980596;28;20114;-54
2023/05/26 07:08:16;;;;;;;18.67;7.22;;;17.80;86.90;;;;;;4986178;28;20515;-54
2023/05/26 07:10:41;;;;;;;18.70;7.78;;;17.80;86.90;;;;;;4986685;28;20027;-54
2023/05/26 07:13:07;;;;;;;22.52;7.80;;;17.90;87.10;;;;;;4978456;28;20039;-54
2023/05/26 07:15:32;;;;;;;16.35;6.90;;;17.90;87.10;;;;;;4986817;28;20042;-54
2023/05/26 07:17:58;;;;;;;22.95;7.00;;;17.90;87.00;;;;;;4986043;28;20026;-54
2023/05/26 07:20:23;;;;;;;18.65;7.50;;;17.90;87.00;;;;;;4982526;28;20033;-54
2023/05/26 07:22:49;;;;;;;16.70;7.47;;;17.90;86.90;;;;;;4983189;28;20031;-54
2023/05/26 07:25:14;;;;;;;12.60;6.97;;;17.90;86.90;;;;;;4984718;28;20089;-54
2023/05/26 07:27:40;;;;;;;20.05;7.57;;;17.90;86.90;;;;;;4981302;28;20035;-54
2023/05/26 07:30:06;;;;;;;24.15;7.60;;;17.90;86.80;;;;;;4983519;28;20499;-54
2023/05/26 07:32:31;;;;;;;21.80;7.95;;;17.90;86.90;;;;;;4991596;28;20037;-54
2023/05/26 07:34:57;;;;;;;25.80;8.68;;;17.90;86.90;;;;;;4987798;28;20031;-54
2023/05/26 07:37:22;;;;;;;26.23;8.13;;;17.90;86.90;;;;;;4983334;28;20490;-54
2023/05/26 07:39:48;;;;;;;24.90;7.45;;;18.00;87.00;;;;;;4985640;28;20098;-53
2023/05/26 07:42:13;;;;;;;25.20;8.02;;;18.00;87.00;;;;;;4982852;28;20050;-54
2023/05/26 07:44:39;;;;;;;33.95;7.82;;;18.00;86.90;;;;;;4981149;28;20475;-53
2023/05/26 07:47:05;;;;;;;41.00;9.10;;;18.00;86.90;;;;;;4984351;28;20041;-53
2023/05/26 07:49:30;;;;;;;74.03;12.40;;;18.00;86.80;;;;;;4998742;28;20019;-54
2023/05/26 07:51:56;;;;;;;44.65;10.05;;;18.00;87.00;;;;;;4982703;28;20121;-53
2023/05/26 07:54:21;;;;;;;95.47;14.93;;;18.00;86.80;;;;;;4986974;28;20035;-54
2023/05/26 07:56:47;;;;;;;86.18;13.95;;;18.10;87.30;;;;;;4979929;28;20075;-53
2023/05/26 07:59:12;;;;;;;75.47;12.98;;;18.10;87.60;;;;;;4980197;28;20062;-53
2023/05/26 08:01:38;;;;;;;76.70;13.80;;;18.10;87.30;;;;;;4978430;28;20062;-53
2023/05/26 08:04:03;;;;;;;64.45;13.18;;;18.10;87.90;;;;;;4982719;28;20042;-54
2023/05/26 08:06:29;;;;;;;67.47;13.45;;;18.10;87.70;;;;;;4981931;28;20416;-53
2023/05/26 08:08:55;;;;;;;105.15;15.35;;;18.10;87.60;;;;;;4974676;28;20085;-54
2023/05/26 08:11:22;;;;;;;83.30;14.23;;;18.20;87.60;;;;;;4964550;28;20352;-54
2023/05/26 08:13:48;;;;;;;67.18;14.02;;;18.10;87.60;;;;;;4986720;28;20045;-53
2023/05/26 08:16:15;;;;;;;89.13;15.57;;;18.10;87.70;;;;;;4964477;28;20464;-53
2023/05/26 08:18:41;;;;;;;61.17;13.20;;;18.20;87.90;;;;;;4984171;28;20034;-54
2023/05/26 08:21:07;;;;;;;75.15;14.25;;;18.20;87.80;;;;;;4985056;28;20344;-54
2023/05/26 08:23:32;;;;;;;73.63;14.88;;;18.20;88.10;;;;;;4982348;28;20064;-54
2023/05/26 08:25:58;;;;;;;90.05;14.75;;;18.20;87.80;;;;;;4981513;28;20066;-54
2023/05/26 08:28:23;;;;;;;98.15;15.77;;;18.30;88.20;;;;;;4980923;28;20042;-53
2023/05/26 08:30:49;;;;;;;77.20;15.38;;;18.30;87.90;;;;;;4977169;28;20042;-54
2023/05/26 08:33:14;;;;;;;78.75;14.63;;;18.30;87.90;;;;;;4980748;28;20039;-54
2023/05/26 08:35:40;;;;;;;114.50;15.77;;;18.40;88.20;;;;;;4974820;28;20033;-54
2023/05/26 08:38:05;;;;;;;68.70;14.82;;;18.40;88.30;;;;;;4975285;28;20035;-54
2023/05/26 08:40:33;;;;;;;84.10;16.05;;;18.40;88.50;;;;;;4971657;28;20090;-54
2023/05/26 08:42:58;;;;;;;117.03;17.63;;;18.40;88.50;;;;;;4979062;28;20090;-53
2023/05/26 08:45:24;;;;;;;120.10;15.77;;;18.50;88.50;;;;;;4982681;28;20031;-54
2023/05/26 08:47:49;;;;;;;115.25;17.95;;;18.50;88.60;;;;;;4989915;28;20517;-54
2023/05/26 08:50:15;;;;;;;127.38;18.90;;;18.50;88.50;;;;;;4982273;28;20464;-54
2023/05/26 08:52:41;;;;;;;103.03;19.48;;;18.50;89.10;;;;;;4980055;28;20054;-52
2023/05/26 08:55:08;;;;;;;127.95;22.70;;;18.50;89.30;;;;;;4979477;28;20102;-53
2023/05/26 08:57:33;;;;;;;132.73;20.42;;;18.60;89.10;;;;;;4976699;28;20090;-54
2023/05/26 08:59:59;;;;;;;107.05;18.23;;;18.60;88.90;;;;;;4945626;29;20062;-54
2023/05/26 09:02:26;;;;;;;100.85;16.23;;;18.60;89.10;;;;;;4979178;28;20098;-54
2023/05/26 09:04:51;;;;;;;99.65;16.80;;;18.60;89.00;;;;;;4969082;28;20030;-54
2023/05/26 09:07:18;;;;;;;90.80;17.55;;;18.70;89.80;;;;;;4980973;28;20471;-54
2023/05/26 09:09:43;;;;;;;112.50;18.15;;;18.70;89.10;;;;;;4983474;28;20038;-53
2023/05/26 09:12:10;;;;;;;101.03;18.20;;;18.70;89.30;;;;;;4983423;28;20047;-54
2023/05/26 09:14:36;;;;;;;80.18;15.88;;;18.70;89.30;;;;;;4966210;28;20050;-54
2023/05/26 09:17:02;;;;;;;89.45;17.02;;;18.70;89.50;;;;;;4997045;28;20105;-54
2023/05/26 09:19:27;;;;;;;85.57;16.15;;;18.80;89.70;;;;;;4979515;28;20029;-54
2023/05/26 09:21:53;;;;;;;71.28;15.98;;;18.80;89.50;;;;;;4976770;28;20027;-54
2023/05/26 09:24:20;;;;;;;81.00;16.35;;;18.80;89.60;;;;;;4982355;28;20100;-54
2023/05/26 09:26:47;;;;;;;70.25;16.60;;;18.80;89.50;;;;;;4983386;28;20081;-55
2023/05/26 09:29:13;;;;;;;101.07;17.58;;;18.90;89.50;;;;;;4978328;28;20086;-53
2023/05/26 09:31:43;;;;;;;183.60;23.42;;;18.90;89.60;;;;;;4974080;28;20059;-54
2023/05/26 09:34:09;;;;;;;84.45;15.80;;;18.90;89.50;;;;;;4961964;28;20035;-54
2023/05/26 09:36:36;;;;;;;104.50;16.77;;;18.90;89.60;;;;;;4980362;28;20027;-53
2023/05/26 09:39:02;;;;;;;99.47;17.80;;;19.00;89.50;;;;;;4973675;28;20403;-54
2023/05/26 09:41:38;;;;;;;97.85;18.48;;;19.00;89.50;;;;;;4982882;28;20102;-54
2023/05/26 09:44:11;;;;;;;102.80;17.20;;;19.00;89.40;;;;;;4977889;28;20038;-54
2023/05/26 09:46:37;;;;;;;89.82;16.17;;;19.00;89.20;;;;;;4983019;28;20038;-54
2023/05/26 09:49:12;;;;;;;39.90;12.20;;;19.10;89.40;;;;;;4984754;28;20027;-54
2023/05/26 09:51:38;;;;;;;78.18;16.52;;;19.10;89.40;;;;;;4979824;28;20452;-54
2023/05/26 09:54:04;;;;;;;96.55;16.27;;;19.10;89.30;;;;;;4985777;28;20058;-54
2023/05/26 09:56:33;;;;;;;87.43;16.08;;;19.20;89.50;;;;;;4984839;28;20019;-54
2023/05/26 09:59:00;;;;;;;52.25;12.93;;;19.20;89.40;;;;;;4989267;28;20030;-54
2023/05/26 10:01:29;;;;;;;55.63;13.93;;;19.20;89.40;;;;;;4969603;28;20082;-54
2023/05/26 10:03:54;;;;;;;97.63;16.17;;;19.30;89.50;;;;;;4968432;28;20110;-54
2023/05/26 10:06:20;;;;;;;87.47;15.27;;;19.30;89.50;;;;;;4987263;28;20058;-54
2023/05/26 10:08:47;;;;;;;92.05;16.25;;;19.40;89.50;;;;;;4990171;28;20027;-54
2023/05/26 10:11:12;;;;;;;133.93;20.70;;;19.40;89.30;;;;;;4965909;28;20035;-54
2023/05/26 10:13:38;;;;;;;118.85;18.77;;;19.50;89.20;;;;;;4986684;28;20038;-54
2023/05/26 10:16:04;;;;;;;81.72;15.75;;;19.50;89.00;;;;;;4983091;28;20034;-54
2023/05/26 10:18:29;;;;;;;80.65;16.60;;;19.60;88.90;;;;;;4988721;28;20047;-54
2023/05/26 10:20:55;;;;;;;94.47;17.83;;;19.60;88.60;;;;;;4987612;28;20019;-54
2023/05/26 10:23:24;;;;;;;88.00;17.05;;;19.70;88.40;;;;;;5002424;28;20411;-54
2023/05/26 10:26:04;;;;;;;79.45;14.90;;;19.70;88.00;;;;;;4986577;28;20034;-54
2023/05/26 10:28:35;;;;;;;78.68;14.63;;;19.80;87.90;;;;;;4987699;28;20506;-54
2023/05/26 10:31:01;;;;;;;104.03;16.55;;;19.80;87.60;;;;;;4971015;28;20053;-54
2023/05/26 10:33:40;;;;;;;75.78;13.90;;;19.90;87.70;;;;;;4983130;28;20031;-54
2023/05/26 10:36:13;;;;;;;70.90;14.20;;;20.00;87.50;;;;;;5013820;28;20054;-54
2023/05/26 10:38:43;;;;;;;76.80;13.30;;;20.00;87.20;;;;;;5015438;28;20111;-54
2023/05/26 10:41:15;;;;;;;61.67;12.77;;;20.10;86.80;;;;;;4986059;28;20472;-54
2023/05/26 10:43:42;;;;;;;51.08;11.75;;;20.20;86.50;;;;;;4969681;28;20041;-54
2023/05/26 10:46:08;;;;;;;65.63;14.73;;;20.30;85.90;;;;;;4988516;28;20031;-54
2023/05/26 10:48:40;;;;;;;66.82;14.30;;;20.30;85.60;;;;;;4986342;28;20224;-54
2023/05/26 10:51:09;;;;;;;77.75;14.20;;;20.30;85.40;;;;;;4982788;28;20046;-56
2023/05/26 10:53:45;;;;;;;68.20;12.95;;;20.50;85.30;;;;;;4988040;28;20034;-54
2023/05/26 10:56:13;;;;;;;80.07;13.65;;;20.50;84.90;;;;;;4984732;28;20038;-54
2023/05/26 10:58:48;;;;;;;84.90;13.82;;;20.60;84.70;;;;;;4982363;28;20038;-54
2023/05/26 11:01:34;;;;;;;62.88;12.35;;;20.70;84.30;;;;;;4985573;28;20026;-54
2023/05/26 11:04:09;;;;;;;60.35;11.38;;;20.80;83.80;;;;;;4973794;28;20177;-53
2023/05/26 11:06:46;;;;;;;78.30;13.55;;;20.90;83.10;;;;;;4983216;28;20034;-54
2023/05/26 11:09:12;;;;;;;37.30;9.65;;;21.00;83.10;;;;;;4981669;28;20032;-54
2023/05/26 11:11:48;;;;;;;39.30;10.07;;;21.10;81.90;;;;;;4985682;28;20049;-54
2023/05/26 11:14:13;;;;;;;78.68;14.77;;;21.20;81.60;;;;;;4983249;28;20035;-54
2023/05/26 11:16:40;;;;;;;37.15;10.80;;;21.30;81.20;;;;;;4982809;28;20043;-54
2023/05/26 11:19:07;;;;;;;64.20;11.23;;;21.40;80.80;;;;;;4961366;28;20027;-54
2023/05/26 11:21:33;;;;;;;85.38;12.63;;;21.60;80.70;;;;;;5007971;28;20027;-54
2023/05/26 11:23:59;;;;;;;69.90;11.45;;;21.80;80.30;;;;;;4976603;28;20045;-54
2023/05/26 11:26:27;;;;;;;57.10;11.02;;;21.80;80.00;;;;;;4996437;28;20113;-54
2023/05/26 11:28:53;;;;;;;49.28;10.70;;;21.90;79.80;;;;;;4981987;28;20034;-54
2023/05/26 11:31:19;;;;;;;45.78;9.75;;;21.90;79.20;;;;;;4980410;28;20034;-53
2023/05/26 11:33:45;;;;;;;50.20;9.50;;;22.00;79.00;;;;;;4998132;28;20062;-54
2023/05/26 11:36:12;;;;;;;60.13;11.90;;;22.10;78.70;;;;;;4981795;28;20069;-54
2023/05/26 11:38:38;;;;;;;47.20;9.52;;;22.20;78.60;;;;;;4981381;28;20039;-54
2023/05/26 11:41:05;;;;;;;65.22;10.57;;;22.20;78.10;;;;;;4981411;28;20019;-54
2023/05/26 11:43:30;;;;;;;33.70;8.85;;;22.20;77.70;;;;;;4980381;28;20042;-54
2023/05/26 11:46:04;;;;;;;41.00;8.70;;;22.30;77.20;;;;;;4982701;28;20085;-54
2023/05/26 11:48:35;;;;;;;34.95;8.95;;;22.40;77.30;;;;;;4979961;28;20031;-54
2023/05/26 11:51:15;;;;;;;78.32;12.60;;;22.50;77.10;;;;;;4985415;28;20034;-54
2023/05/26 11:53:42;;;;;;;23.10;7.85;;;22.50;77.20;;;;;;4984131;28;20151;-54
2023/05/26 11:56:08;;;;;;;33.15;7.82;;;22.60;76.90;;;;;;4979837;28;20033;-54
2023/05/26 11:58:45;;;;;;;29.85;7.85;;;22.60;76.90;;;;;;4985704;28;20039;-54
2023/05/26 12:01:10;;;;;;;30.05;7.45;;;22.70;76.50;;;;;;4977688;28;20139;-54
2023/05/26 12:03:38;;;;;;;26.40;7.60;;;22.70;76.30;;;;;;4984446;28;20122;-54
2023/05/26 12:06:07;;;;;;;67.20;9.95;;;22.80;75.50;;;;;;4979999;28;20027;-54
2023/05/26 12:08:48;;;;;;;53.42;9.27;;;22.90;75.30;;;;;;4978010;28;20595;-54
2023/05/26 12:11:17;;;;;;;37.38;7.72;;;23.00;75.20;;;;;;4970144;28;20133;-54
2023/05/26 12:13:42;;;;;;;21.60;6.85;;;23.00;74.40;;;;;;4984919;28;20031;-54
2023/05/26 12:16:22;;;;;;;33.03;8.18;;;23.10;73.50;;;;;;4985926;28;20045;-54
2023/05/26 12:18:50;;;;;;;55.05;9.40;;;23.10;73.10;;;;;;4983822;28;20035;-54
2023/05/26 12:21:16;;;;;;;42.42;8.40;;;23.20;73.20;;;;;;4985705;28;20026;-54
2023/05/26 12:23:41;;;;;;;66.72;10.93;;;23.30;72.90;;;;;;4982809;28;20424;-54
2023/05/26 12:26:15;;;;;;;64.82;12.73;;;23.30;72.60;;;;;;4984747;28;20039;-54
2023/05/26 12:28:41;;;;;;;54.95;9.57;;;23.40;72.40;;;;;;4986626;28;20041;-54
2023/05/26 12:31:06;;;;;;;33.22;8.63;;;23.40;71.90;;;;;;4984916;28;20058;-54